sensor_id;sensor_type;location;lat;lon;timestamp;P1;durP1;ratioP1;P2;durP2;ratioP2
55316;SDS011;41178;48.956;8.130;2022-09-13T00:01:34;8.90;;;4.03;;
55316;SDS011;41178;48.956;8.130;2022-09-13T00:03:35;4.17;;;3.40;;
55316;SDS011;41178;48.956;8.130;2022-09-13T00:05:37;6.60;;;3.53;;
55316;SDS011;41178;48.956;8.130;2022-09-13T00:07:40;3.70;;;3.40;;
55316;SDS011;41178;48.956;8.130;2022-09-13T00:09:41;5.93;;;4.20;;
55316;SDS011;41178;48.956;8.130;2022-09-13T00:11:43;5.23;;;3.77;;
55316;SDS011;41178;48.956;8.130;2022-09-13T00:13:44;7.27;;;4.53;;
55316;SDS011;41178;48.956;8.130;2022-09-13T00:15:47;4.77;;;3.87;;
55316;SDS011;41178;48.956;8.130;2022-09-13T00:17:50;6.47;;;4.23;;
55316;SDS011;41178;48.956;8.130;2022-09-13T00:19:52;5.53;;;4.20;;
55316;SDS011;41178;48.956;8.130;2022-09-13T00:21:53;4.40;;;4.00;;
55316;SDS011;41178;48.956;8.130;2022-09-13T00:23:55;4.30;;;3.90;;
55316;SDS011;41178;48.956;8.130;2022-09-13T00:26:04;5.27;;;4.10;;
55316;SDS011;41178;48.956;8.130;2022-09-13T00:28:06;5.77;;;3.83;;
55316;SDS011;41178;48.956;8.130;2022-09-13T00:30:08;4.73;;;4.10;;
55316;SDS011;41178;48.956;8.130;2022-09-13T00:32:11;7.77;;;4.10;;
55316;SDS011;41178;48.956;8.130;2022-09-13T00:34:13;4.57;;;4.17;;
55316;SDS011;41178;48.956;8.130;2022-09-13T00:36:15;6.40;;;3.97;;
55316;SDS011;41178;48.956;8.130;2022-09-13T00:38:16;4.50;;;4.10;;
55316;SDS011;41178;48.956;8.130;2022-09-13T00:40:19;4.73;;;4.20;;
55316;SDS011;41178;48.956;8.130;2022-09-13T00:42:25;4.70;;;4.20;;
55316;SDS011;41178;48.956;8.130;2022-09-13T00:46:55;6.90;;;4.30;;
55316;SDS011;41178;48.956;8.130;2022-09-13T00:49:30;6.50;;;4.57;;
55316;SDS011;41178;48.956;8.130;2022-09-13T00:51:32;6.97;;;4.27;;
55316;SDS011;41178;48.956;8.130;2022-09-13T00:53:34;5.93;;;4.03;;
55316;SDS011;41178;48.956;8.130;2022-09-13T00:55:46;4.47;;;3.93;;
55316;SDS011;41178;48.956;8.130;2022-09-13T00:58:15;5.50;;;4.60;;
55316;SDS011;41178;48.956;8.130;2022-09-13T01:00:22;4.57;;;3.60;;
55316;SDS011;41178;48.956;8.130;2022-09-13T01:02:24;6.27;;;3.50;;
55316;SDS011;41178;48.956;8.130;2022-09-13T01:04:28;3.77;;;3.40;;
55316;SDS011;41178;48.956;8.130;2022-09-13T01:06:32;5.67;;;3.70;;
55316;SDS011;41178;48.956;8.130;2022-09-13T01:08:36;4.60;;;3.87;;
55316;SDS011;41178;48.956;8.130;2022-09-13T01:10:42;4.90;;;4.23;;
55316;SDS011;41178;48.956;8.130;2022-09-13T01:14:51;6.20;;;4.40;;
55316;SDS011;41178;48.956;8.130;2022-09-13T01:16:53;4.57;;;4.17;;
55316;SDS011;41178;48.956;8.130;2022-09-13T01:18:55;4.30;;;3.90;;
55316;SDS011;41178;48.956;8.130;2022-09-13T01:25:38;8.87;;;4.17;;
55316;SDS011;41178;48.956;8.130;2022-09-13T01:30:20;9.00;;;5.00;;
55316;SDS011;41178;48.956;8.130;2022-09-13T01:39:15;5.40;;;4.50;;
55316;SDS011;41178;48.956;8.130;2022-09-13T01:47:58;6.83;;;4.87;;
55316;SDS011;41178;48.956;8.130;2022-09-13T01:57:13;5.13;;;4.13;;
55316;SDS011;41178;48.956;8.130;2022-09-13T01:59:28;4.80;;;3.63;;
55316;SDS011;41178;48.956;8.130;2022-09-13T02:01:40;6.50;;;4.63;;
55316;SDS011;41178;48.956;8.130;2022-09-13T02:04:07;4.70;;;4.20;;
55316;SDS011;41178;48.956;8.130;2022-09-13T02:06:14;6.57;;;4.70;;
55316;SDS011;41178;48.956;8.130;2022-09-13T02:08:30;7.27;;;4.60;;
55316;SDS011;41178;48.956;8.130;2022-09-13T02:10:41;5.30;;;3.70;;
55316;SDS011;41178;48.956;8.130;2022-09-13T02:12:48;5.73;;;4.13;;
55316;SDS011;41178;48.956;8.130;2022-09-13T02:14:55;4.23;;;3.80;;
55316;SDS011;41178;48.956;8.130;2022-09-13T02:17:09;6.87;;;4.33;;
55316;SDS011;41178;48.956;8.130;2022-09-13T02:19:16;6.27;;;4.40;;
55316;SDS011;41178;48.956;8.130;2022-09-13T02:21:24;9.77;;;5.07;;
55316;SDS011;41178;48.956;8.130;2022-09-13T02:23:33;6.17;;;5.00;;
55316;SDS011;41178;48.956;8.130;2022-09-13T02:25:41;6.33;;;5.23;;
55316;SDS011;41178;48.956;8.130;2022-09-13T02:27:50;5.57;;;4.97;;
55316;SDS011;41178;48.956;8.130;2022-09-13T02:29:56;8.27;;;5.40;;
55316;SDS011;41178;48.956;8.130;2022-09-13T02:32:15;7.60;;;5.00;;
55316;SDS011;41178;48.956;8.130;2022-09-13T02:34:27;7.73;;;5.33;;
55316;SDS011;41178;48.956;8.130;2022-09-13T02:36:37;5.63;;;5.07;;
55316;SDS011;41178;48.956;8.130;2022-09-13T02:40:52;6.00;;;5.33;;
55316;SDS011;41178;48.956;8.130;2022-09-13T02:43:09;5.67;;;5.07;;
55316;SDS011;41178;48.956;8.130;2022-09-13T02:45:16;6.13;;;5.17;;
55316;SDS011;41178;48.956;8.130;2022-09-13T02:47:26;13.60;;;6.00;;
55316;SDS011;41178;48.956;8.130;2022-09-13T02:49:53;6.20;;;5.33;;
55316;SDS011;41178;48.956;8.130;2022-09-13T03:00:49;7.30;;;5.60;;
55316;SDS011;41178;48.956;8.130;2022-09-13T03:02:51;8.40;;;5.80;;
55316;SDS011;41178;48.956;8.130;2022-09-13T03:04:55;9.83;;;6.03;;
55316;SDS011;41178;48.956;8.130;2022-09-13T03:06:59;7.20;;;6.13;;
55316;SDS011;41178;48.956;8.130;2022-09-13T03:09:01;7.13;;;6.00;;
55316;SDS011;41178;48.956;8.130;2022-09-13T03:13:32;7.90;;;6.07;;
55316;SDS011;41178;48.956;8.130;2022-09-13T03:29:54;11.73;;;6.43;;
55316;SDS011;41178;48.956;8.130;2022-09-13T03:36:39;7.77;;;5.83;;
55316;SDS011;41178;48.956;8.130;2022-09-13T03:41:06;6.90;;;5.53;;
55316;SDS011;41178;48.956;8.130;2022-09-13T03:45:38;6.57;;;5.70;;
55316;SDS011;41178;48.956;8.130;2022-09-13T03:47:45;9.27;;;5.80;;
55316;SDS011;41178;48.956;8.130;2022-09-13T03:49:50;8.63;;;5.90;;
55316;SDS011;41178;48.956;8.130;2022-09-13T03:51:53;7.00;;;5.73;;
55316;SDS011;41178;48.956;8.130;2022-09-13T03:53:57;7.60;;;5.70;;
55316;SDS011;41178;48.956;8.130;2022-09-13T03:56:15;9.20;;;6.40;;
55316;SDS011;41178;48.956;8.130;2022-09-13T03:58:18;9.53;;;6.07;;
55316;SDS011;41178;48.956;8.130;2022-09-13T04:00:21;9.00;;;6.50;;
55316;SDS011;41178;48.956;8.130;2022-09-13T04:02:23;9.60;;;6.30;;
55316;SDS011;41178;48.956;8.130;2022-09-13T04:04:26;11.57;;;5.93;;
55316;SDS011;41178;48.956;8.130;2022-09-13T04:06:28;7.37;;;5.80;;
55316;SDS011;41178;48.956;8.130;2022-09-13T04:08:30;7.70;;;5.43;;
55316;SDS011;41178;48.956;8.130;2022-09-13T04:10:32;6.00;;;5.40;;
55316;SDS011;41178;48.956;8.130;2022-09-13T04:12:37;9.37;;;5.67;;
55316;SDS011;41178;48.956;8.130;2022-09-13T04:14:41;9.53;;;5.83;;
55316;SDS011;41178;48.956;8.130;2022-09-13T04:16:46;9.37;;;5.50;;
55316;SDS011;41178;48.956;8.130;2022-09-13T04:18:47;7.20;;;5.63;;
55316;SDS011;41178;48.956;8.130;2022-09-13T04:20:56;11.57;;;5.37;;
55316;SDS011;41178;48.956;8.130;2022-09-13T04:22:58;7.17;;;5.83;;
55316;SDS011;41178;48.956;8.130;2022-09-13T04:25:00;6.03;;;5.17;;
55316;SDS011;41178;48.956;8.130;2022-09-13T04:27:03;6.13;;;5.53;;
55316;SDS011;41178;48.956;8.130;2022-09-13T04:29:05;8.50;;;5.13;;
55316;SDS011;41178;48.956;8.130;2022-09-13T04:31:06;9.10;;;5.20;;
55316;SDS011;41178;48.956;8.130;2022-09-13T04:33:08;6.17;;;5.57;;
55316;SDS011;41178;48.956;8.130;2022-09-13T04:35:10;7.07;;;5.23;;
55316;SDS011;41178;48.956;8.130;2022-09-13T04:37:12;8.50;;;5.80;;
55316;SDS011;41178;48.956;8.130;2022-09-13T04:39:13;8.37;;;5.50;;
55316;SDS011;41178;48.956;8.130;2022-09-13T04:41:15;7.50;;;5.50;;
55316;SDS011;41178;48.956;8.130;2022-09-13T04:43:17;7.50;;;5.80;;
55316;SDS011;41178;48.956;8.130;2022-09-13T04:45:19;7.67;;;5.80;;
55316;SDS011;41178;48.956;8.130;2022-09-13T04:47:20;6.50;;;5.53;;
55316;SDS011;41178;48.956;8.130;2022-09-13T04:49:22;7.53;;;5.57;;
55316;SDS011;41178;48.956;8.130;2022-09-13T04:51:24;7.40;;;5.37;;
55316;SDS011;41178;48.956;8.130;2022-09-13T04:53:26;7.17;;;5.00;;
55316;SDS011;41178;48.956;8.130;2022-09-13T04:55:27;9.43;;;6.10;;
55316;SDS011;41178;48.956;8.130;2022-09-13T04:57:29;9.23;;;5.47;;
55316;SDS011;41178;48.956;8.130;2022-09-13T04:59:31;6.70;;;5.20;;
55316;SDS011;41178;48.956;8.130;2022-09-13T05:01:33;6.77;;;4.87;;
55316;SDS011;41178;48.956;8.130;2022-09-13T05:03:35;6.97;;;5.20;;
55316;SDS011;41178;48.956;8.130;2022-09-13T05:05:38;10.77;;;5.40;;
55316;SDS011;41178;48.956;8.130;2022-09-13T05:07:39;7.93;;;4.90;;
55316;SDS011;41178;48.956;8.130;2022-09-13T05:09:41;6.83;;;4.60;;
55316;SDS011;41178;48.956;8.130;2022-09-13T05:11:42;6.07;;;4.70;;
55316;SDS011;41178;48.956;8.130;2022-09-13T05:13:47;6.33;;;4.80;;
55316;SDS011;41178;48.956;8.130;2022-09-13T05:15:56;7.80;;;6.00;;
55316;SDS011;41178;48.956;8.130;2022-09-13T05:17:59;6.00;;;4.90;;
55316;SDS011;41178;48.956;8.130;2022-09-13T05:20:01;11.33;;;5.40;;
55316;SDS011;41178;48.956;8.130;2022-09-13T05:22:03;7.50;;;5.70;;
55316;SDS011;41178;48.956;8.130;2022-09-13T05:24:04;6.80;;;5.13;;
55316;SDS011;41178;48.956;8.130;2022-09-13T05:26:06;5.60;;;4.87;;
55316;SDS011;41178;48.956;8.130;2022-09-13T05:28:08;6.63;;;4.80;;
55316;SDS011;41178;48.956;8.130;2022-09-13T05:30:10;5.57;;;4.83;;
55316;SDS011;41178;48.956;8.130;2022-09-13T05:32:12;6.37;;;5.30;;
55316;SDS011;41178;48.956;8.130;2022-09-13T05:34:14;6.27;;;5.10;;
55316;SDS011;41178;48.956;8.130;2022-09-13T05:36:20;6.20;;;5.40;;
55316;SDS011;41178;48.956;8.130;2022-09-13T05:38:22;7.67;;;5.53;;
55316;SDS011;41178;48.956;8.130;2022-09-13T05:40:23;11.07;;;5.07;;
55316;SDS011;41178;48.956;8.130;2022-09-13T05:42:25;8.73;;;4.70;;
55316;SDS011;41178;48.956;8.130;2022-09-13T05:44:26;7.27;;;4.87;;
55316;SDS011;41178;48.956;8.130;2022-09-13T05:46:28;7.90;;;4.90;;
55316;SDS011;41178;48.956;8.130;2022-09-13T05:48:30;9.40;;;5.30;;
55316;SDS011;41178;48.956;8.130;2022-09-13T05:50:36;7.90;;;5.13;;
55316;SDS011;41178;48.956;8.130;2022-09-13T05:52:58;8.47;;;4.77;;
55316;SDS011;41178;48.956;8.130;2022-09-13T05:54:59;9.73;;;5.00;;
55316;SDS011;41178;48.956;8.130;2022-09-13T05:57:01;6.63;;;4.77;;
55316;SDS011;41178;48.956;8.130;2022-09-13T05:59:03;5.33;;;4.60;;
55316;SDS011;41178;48.956;8.130;2022-09-13T06:01:05;6.20;;;4.90;;
55316;SDS011;41178;48.956;8.130;2022-09-13T06:03:07;7.77;;;5.20;;
55316;SDS011;41178;48.956;8.130;2022-09-13T06:05:09;8.33;;;5.07;;
55316;SDS011;41178;48.956;8.130;2022-09-13T06:07:11;6.20;;;5.03;;
55316;SDS011;41178;48.956;8.130;2022-09-13T06:09:13;8.67;;;5.00;;
55316;SDS011;41178;48.956;8.130;2022-09-13T06:11:14;7.73;;;4.63;;
55316;SDS011;41178;48.956;8.130;2022-09-13T06:13:16;6.37;;;5.00;;
55316;SDS011;41178;48.956;8.130;2022-09-13T06:15:17;6.73;;;4.70;;
55316;SDS011;41178;48.956;8.130;2022-09-13T06:17:19;7.20;;;5.17;;
55316;SDS011;41178;48.956;8.130;2022-09-13T06:19:20;11.30;;;5.93;;
55316;SDS011;41178;48.956;8.130;2022-09-13T06:21:22;8.40;;;4.77;;
55316;SDS011;41178;48.956;8.130;2022-09-13T06:23:29;9.00;;;5.13;;
55316;SDS011;41178;48.956;8.130;2022-09-13T06:25:31;8.67;;;5.63;;
55316;SDS011;41178;48.956;8.130;2022-09-13T06:27:33;5.80;;;5.10;;
55316;SDS011;41178;48.956;8.130;2022-09-13T06:29:34;7.97;;;5.57;;
55316;SDS011;41178;48.956;8.130;2022-09-13T06:31:36;7.90;;;5.37;;
55316;SDS011;41178;48.956;8.130;2022-09-13T06:33:40;7.60;;;5.83;;
55316;SDS011;41178;48.956;8.130;2022-09-13T06:35:42;8.63;;;5.80;;
55316;SDS011;41178;48.956;8.130;2022-09-13T06:37:44;10.73;;;5.90;;
55316;SDS011;41178;48.956;8.130;2022-09-13T06:39:45;11.10;;;6.10;;
55316;SDS011;41178;48.956;8.130;2022-09-13T06:41:47;9.77;;;6.27;;
55316;SDS011;41178;48.956;8.130;2022-09-13T06:43:53;8.43;;;5.30;;
55316;SDS011;41178;48.956;8.130;2022-09-13T06:46:03;8.30;;;6.13;;
55316;SDS011;41178;48.956;8.130;2022-09-13T06:48:06;7.83;;;6.10;;
55316;SDS011;41178;48.956;8.130;2022-09-13T06:50:08;6.83;;;5.60;;
55316;SDS011;41178;48.956;8.130;2022-09-13T06:52:10;7.77;;;5.77;;
55316;SDS011;41178;48.956;8.130;2022-09-13T06:54:11;8.90;;;6.60;;
55316;SDS011;41178;48.956;8.130;2022-09-13T06:56:14;8.23;;;6.10;;
55316;SDS011;41178;48.956;8.130;2022-09-13T06:58:18;10.63;;;5.93;;
55316;SDS011;41178;48.956;8.130;2022-09-13T07:00:19;8.80;;;6.90;;
55316;SDS011;41178;48.956;8.130;2022-09-13T07:02:21;8.30;;;5.93;;
55316;SDS011;41178;48.956;8.130;2022-09-13T07:04:22;10.03;;;6.17;;
55316;SDS011;41178;48.956;8.130;2022-09-13T07:06:43;11.93;;;5.80;;
55316;SDS011;41178;48.956;8.130;2022-09-13T07:08:48;9.57;;;6.13;;
55316;SDS011;41178;48.956;8.130;2022-09-13T07:10:55;8.37;;;6.00;;
55316;SDS011;41178;48.956;8.130;2022-09-13T07:12:58;9.87;;;6.20;;
55316;SDS011;41178;48.956;8.130;2022-09-13T07:14:59;11.97;;;6.30;;
55316;SDS011;41178;48.956;8.130;2022-09-13T07:17:01;6.97;;;5.63;;
55316;SDS011;41178;48.956;8.130;2022-09-13T07:19:03;10.90;;;6.40;;
55316;SDS011;41178;48.956;8.130;2022-09-13T07:21:12;7.60;;;5.43;;
55316;SDS011;41178;48.956;8.130;2022-09-13T07:23:14;7.70;;;5.83;;
55316;SDS011;41178;48.956;8.130;2022-09-13T07:25:15;8.57;;;5.63;;
55316;SDS011;41178;48.956;8.130;2022-09-13T07:27:17;6.97;;;5.30;;
55316;SDS011;41178;48.956;8.130;2022-09-13T07:29:20;9.80;;;5.20;;
55316;SDS011;41178;48.956;8.130;2022-09-13T07:31:31;7.53;;;5.30;;
55316;SDS011;41178;48.956;8.130;2022-09-13T07:33:35;7.63;;;5.60;;
55316;SDS011;41178;48.956;8.130;2022-09-13T07:35:37;7.97;;;5.40;;
55316;SDS011;41178;48.956;8.130;2022-09-13T07:37:39;11.17;;;5.17;;
55316;SDS011;41178;48.956;8.130;2022-09-13T07:39:42;7.20;;;5.97;;
55316;SDS011;41178;48.956;8.130;2022-09-13T07:41:44;6.77;;;5.37;;
55316;SDS011;41178;48.956;8.130;2022-09-13T07:43:46;9.10;;;4.70;;
55316;SDS011;41178;48.956;8.130;2022-09-13T07:45:55;10.50;;;5.20;;
55316;SDS011;41178;48.956;8.130;2022-09-13T07:48:00;9.60;;;5.10;;
55316;SDS011;41178;48.956;8.130;2022-09-13T07:50:02;7.20;;;5.30;;
55316;SDS011;41178;48.956;8.130;2022-09-13T07:52:04;7.87;;;5.03;;
55316;SDS011;41178;48.956;8.130;2022-09-13T07:54:09;6.20;;;4.90;;
55316;SDS011;41178;48.956;8.130;2022-09-13T07:56:16;8.87;;;5.20;;
55316;SDS011;41178;48.956;8.130;2022-09-13T07:58:19;5.97;;;4.83;;
55316;SDS011;41178;48.956;8.130;2022-09-13T08:00:20;7.13;;;4.80;;
55316;SDS011;41178;48.956;8.130;2022-09-13T08:02:22;12.47;;;4.83;;
55316;SDS011;41178;48.956;8.130;2022-09-13T08:04:24;7.57;;;4.60;;
55316;SDS011;41178;48.956;8.130;2022-09-13T08:06:26;7.27;;;4.77;;
55316;SDS011;41178;48.956;8.130;2022-09-13T08:08:30;7.47;;;4.47;;
55316;SDS011;41178;48.956;8.130;2022-09-13T08:10:32;9.67;;;4.60;;
55316;SDS011;41178;48.956;8.130;2022-09-13T08:12:34;7.63;;;4.57;;
55316;SDS011;41178;48.956;8.130;2022-09-13T08:14:36;8.70;;;4.50;;
55316;SDS011;41178;48.956;8.130;2022-09-13T08:16:38;12.20;;;5.83;;
55316;SDS011;41178;48.956;8.130;2022-09-13T08:18:46;11.07;;;4.30;;
55316;SDS011;41178;48.956;8.130;2022-09-13T08:20:50;11.60;;;4.83;;
55316;SDS011;41178;48.956;8.130;2022-09-13T08:22:57;7.07;;;4.57;;
55316;SDS011;41178;48.956;8.130;2022-09-13T08:24:59;8.37;;;4.17;;
55316;SDS011;41178;48.956;8.130;2022-09-13T08:27:00;9.37;;;4.00;;
55316;SDS011;41178;48.956;8.130;2022-09-13T08:29:03;7.43;;;4.23;;
55316;SDS011;41178;48.956;8.130;2022-09-13T08:31:08;4.97;;;3.93;;
55316;SDS011;41178;48.956;8.130;2022-09-13T08:33:15;7.40;;;4.60;;
55316;SDS011;41178;48.956;8.130;2022-09-13T08:35:17;7.23;;;4.80;;
55316;SDS011;41178;48.956;8.130;2022-09-13T08:37:18;7.00;;;4.43;;
55316;SDS011;41178;48.956;8.130;2022-09-13T08:39:20;7.93;;;4.57;;
55316;SDS011;41178;48.956;8.130;2022-09-13T08:43:49;8.53;;;4.37;;
55316;SDS011;41178;48.956;8.130;2022-09-13T08:46:04;5.60;;;4.50;;
55316;SDS011;41178;48.956;8.130;2022-09-13T08:48:24;7.07;;;4.37;;
55316;SDS011;41178;48.956;8.130;2022-09-13T08:50:33;6.40;;;5.03;;
55316;SDS011;41178;48.956;8.130;2022-09-13T08:54:41;5.53;;;4.53;;
55316;SDS011;41178;48.956;8.130;2022-09-13T08:56:45;5.70;;;5.03;;
55316;SDS011;41178;48.956;8.130;2022-09-13T09:05:49;7.30;;;4.33;;
55316;SDS011;41178;48.956;8.130;2022-09-13T09:07:56;5.50;;;4.30;;
55316;SDS011;41178;48.956;8.130;2022-09-13T09:14:32;7.67;;;4.30;;
55316;SDS011;41178;48.956;8.130;2022-09-13T09:16:42;8.60;;;4.87;;
55316;SDS011;41178;48.956;8.130;2022-09-13T09:18:48;5.47;;;4.40;;
55316;SDS011;41178;48.956;8.130;2022-09-13T09:20:50;6.57;;;4.70;;
55316;SDS011;41178;48.956;8.130;2022-09-13T09:22:54;5.55;;;4.55;;
55316;SDS011;41178;48.956;8.130;2022-09-13T09:24:56;5.78;;;4.85;;
55316;SDS011;41178;48.956;8.130;2022-09-13T09:26:58;6.13;;;4.05;;
55316;SDS011;41178;48.956;8.130;2022-09-13T09:31:40;5.07;;;4.35;;
55316;SDS011;41178;48.956;8.130;2022-09-13T09:33:56;4.05;;;3.65;;
55316;SDS011;41178;48.956;8.130;2022-09-13T09:36:04;5.53;;;4.00;;
55316;SDS011;41178;48.956;8.130;2022-09-13T09:38:26;7.75;;;4.03;;
55316;SDS011;41178;48.956;8.130;2022-09-13T09:40:31;7.88;;;4.00;;
55316;SDS011;41178;48.956;8.130;2022-09-13T09:42:46;5.38;;;3.45;;
55316;SDS011;41178;48.956;8.130;2022-09-13T09:44:54;4.00;;;3.60;;
55316;SDS011;41178;48.956;8.130;2022-09-13T09:49:20;8.85;;;3.15;;
55316;SDS011;41178;48.956;8.130;2022-09-13T09:51:48;5.47;;;3.30;;
55316;SDS011;41178;48.956;8.130;2022-09-13T09:53:52;6.45;;;3.17;;
55316;SDS011;41178;48.956;8.130;2022-09-13T09:58:36;11.90;;;4.25;;
55316;SDS011;41178;48.956;8.130;2022-09-13T10:00:52;4.88;;;3.25;;
55316;SDS011;41178;48.956;8.130;2022-09-13T10:02:57;7.03;;;3.10;;
55316;SDS011;41178;48.956;8.130;2022-09-13T10:05:01;6.78;;;3.20;;
55316;SDS011;41178;48.956;8.130;2022-09-13T10:07:08;9.05;;;3.63;;
55316;SDS011;41178;48.956;8.130;2022-09-13T10:09:19;5.88;;;2.92;;
55316;SDS011;41178;48.956;8.130;2022-09-13T10:11:22;8.60;;;3.45;;
55316;SDS011;41178;48.956;8.130;2022-09-13T10:13:28;4.90;;;2.90;;
55316;SDS011;41178;48.956;8.130;2022-09-13T10:15:32;7.10;;;3.47;;
55316;SDS011;41178;48.956;8.130;2022-09-13T10:17:35;6.10;;;3.33;;
55316;SDS011;41178;48.956;8.130;2022-09-13T10:19:37;5.85;;;3.20;;
55316;SDS011;41178;48.956;8.130;2022-09-13T10:21:38;6.68;;;3.83;;
55316;SDS011;41178;48.956;8.130;2022-09-13T10:23:40;4.97;;;3.53;;
55316;SDS011;41178;48.956;8.130;2022-09-13T10:25:42;7.43;;;3.30;;
55316;SDS011;41178;48.956;8.130;2022-09-13T10:27:49;6.03;;;3.50;;
55316;SDS011;41178;48.956;8.130;2022-09-13T10:29:55;3.80;;;3.28;;
55316;SDS011;41178;48.956;8.130;2022-09-13T10:32:00;6.30;;;3.10;;
55316;SDS011;41178;48.956;8.130;2022-09-13T10:36:28;6.75;;;3.45;;
55316;SDS011;41178;48.956;8.130;2022-09-13T10:38:59;3.58;;;2.85;;
55316;SDS011;41178;48.956;8.130;2022-09-13T10:41:05;3.85;;;2.97;;
55316;SDS011;41178;48.956;8.130;2022-09-13T10:43:13;5.43;;;3.42;;
55316;SDS011;41178;48.956;8.130;2022-09-13T10:45:23;4.00;;;3.30;;
55316;SDS011;41178;48.956;8.130;2022-09-13T10:47:31;6.95;;;3.20;;
55316;SDS011;41178;48.956;8.130;2022-09-13T10:49:49;4.07;;;2.63;;
55316;SDS011;41178;48.956;8.130;2022-09-13T10:51:53;5.05;;;2.70;;
55316;SDS011;41178;48.956;8.130;2022-09-13T10:54:18;4.85;;;2.88;;
55316;SDS011;41178;48.956;8.130;2022-09-13T10:56:25;5.53;;;2.60;;
55316;SDS011;41178;48.956;8.130;2022-09-13T10:58:27;4.15;;;3.05;;
55316;SDS011;41178;48.956;8.130;2022-09-13T11:19:44;4.45;;;3.15;;
55316;SDS011;41178;48.956;8.130;2022-09-13T11:24:23;8.63;;;2.83;;
55316;SDS011;41178;48.956;8.130;2022-09-13T11:33:24;6.43;;;3.00;;
55316;SDS011;41178;48.956;8.130;2022-09-13T11:52:09;2.80;;;2.42;;
55316;SDS011;41178;48.956;8.130;2022-09-13T11:56:54;7.28;;;2.65;;
55316;SDS011;41178;48.956;8.130;2022-09-13T12:01:33;3.95;;;2.70;;
55316;SDS011;41178;48.956;8.130;2022-09-13T12:07:52;3.30;;;2.70;;
55316;SDS011;41178;48.956;8.130;2022-09-13T12:10:02;3.35;;;2.30;;
55316;SDS011;41178;48.956;8.130;2022-09-13T12:12:15;3.70;;;2.42;;
55316;SDS011;41178;48.956;8.130;2022-09-13T12:14:18;4.22;;;2.13;;
55316;SDS011;41178;48.956;8.130;2022-09-13T12:16:34;3.17;;;2.10;;
55316;SDS011;41178;48.956;8.130;2022-09-13T12:18:58;3.78;;;2.30;;
55316;SDS011;41178;48.956;8.130;2022-09-13T12:21:11;4.80;;;2.50;;
55316;SDS011;41178;48.956;8.130;2022-09-13T12:23:23;2.92;;;2.30;;
55316;SDS011;41178;48.956;8.130;2022-09-13T12:25:34;2.17;;;1.90;;
55316;SDS011;41178;48.956;8.130;2022-09-13T12:30:22;4.38;;;2.42;;
55316;SDS011;41178;48.956;8.130;2022-09-13T12:32:28;3.80;;;2.25;;
55316;SDS011;41178;48.956;8.130;2022-09-13T12:36:49;3.88;;;2.72;;
55316;SDS011;41178;48.956;8.130;2022-09-13T12:41:19;2.72;;;2.00;;
55316;SDS011;41178;48.956;8.130;2022-09-13T12:43:34;2.60;;;2.10;;
55316;SDS011;41178;48.956;8.130;2022-09-13T12:46:03;2.80;;;2.08;;
55316;SDS011;41178;48.956;8.130;2022-09-13T12:48:13;7.00;;;2.63;;
55316;SDS011;41178;48.956;8.130;2022-09-13T12:56:02;2.08;;;1.83;;
55316;SDS011;41178;48.956;8.130;2022-09-13T13:00:41;4.50;;;1.95;;
55316;SDS011;41178;48.956;8.130;2022-09-13T13:07:37;2.42;;;1.80;;
55316;SDS011;41178;48.956;8.130;2022-09-13T13:09:43;2.72;;;1.67;;
55316;SDS011;41178;48.956;8.130;2022-09-13T13:11:48;2.22;;;1.60;;
55316;SDS011;41178;48.956;8.130;2022-09-13T13:13:58;1.88;;;1.60;;
55316;SDS011;41178;48.956;8.130;2022-09-13T13:16:04;3.47;;;1.80;;
55316;SDS011;41178;48.956;8.130;2022-09-13T13:20:43;2.70;;;1.48;;
55316;SDS011;41178;48.956;8.130;2022-09-13T13:23:14;6.90;;;1.70;;
55316;SDS011;41178;48.956;8.130;2022-09-13T13:25:53;3.55;;;1.30;;
55316;SDS011;41178;48.956;8.130;2022-09-13T13:27:58;1.40;;;1.30;;
55316;SDS011;41178;48.956;8.130;2022-09-13T13:33:03;1.83;;;1.50;;
55316;SDS011;41178;48.956;8.130;2022-09-13T13:35:27;5.03;;;1.52;;
55316;SDS011;41178;48.956;8.130;2022-09-13T13:37:31;3.97;;;1.83;;
55316;SDS011;41178;48.956;8.130;2022-09-13T13:39:36;3.17;;;1.48;;
55316;SDS011;41178;48.956;8.130;2022-09-13T13:41:46;3.00;;;2.08;;
55316;SDS011;41178;48.956;8.130;2022-09-13T13:43:49;4.22;;;1.73;;
55316;SDS011;41178;48.956;8.130;2022-09-13T13:45:59;6.63;;;1.60;;
55316;SDS011;41178;48.956;8.130;2022-09-13T13:48:35;3.97;;;1.60;;
55316;SDS011;41178;48.956;8.130;2022-09-13T13:53:19;4.32;;;1.50;;
55316;SDS011;41178;48.956;8.130;2022-09-13T13:57:34;5.82;;;1.38;;
55316;SDS011;41178;48.956;8.130;2022-09-13T13:59:41;3.60;;;1.60;;
55316;SDS011;41178;48.956;8.130;2022-09-13T14:01:44;3.15;;;1.67;;
55316;SDS011;41178;48.956;8.130;2022-09-13T14:06:14;7.20;;;1.70;;
55316;SDS011;41178;48.956;8.130;2022-09-13T14:08:36;4.05;;;1.35;;
55316;SDS011;41178;48.956;8.130;2022-09-13T14:20:56;2.05;;;1.30;;
55316;SDS011;41178;48.956;8.130;2022-09-13T14:23:18;3.30;;;1.50;;
55316;SDS011;41178;48.956;8.130;2022-09-13T14:27:25;3.22;;;1.45;;
55316;SDS011;41178;48.956;8.130;2022-09-13T14:29:29;2.80;;;1.52;;
55316;SDS011;41178;48.956;8.130;2022-09-13T14:31:31;1.55;;;1.30;;
55316;SDS011;41178;48.956;8.130;2022-09-13T14:33:34;8.68;;;1.60;;
55316;SDS011;41178;48.956;8.130;2022-09-13T14:35:38;2.55;;;1.40;;
55316;SDS011;41178;48.956;8.130;2022-09-13T14:37:41;3.03;;;1.58;;
55316;SDS011;41178;48.956;8.130;2022-09-13T14:39:52;2.33;;;1.30;;
55316;SDS011;41178;48.956;8.130;2022-09-13T14:46:35;4.22;;;1.58;;
55316;SDS011;41178;48.956;8.130;2022-09-13T14:48:52;4.25;;;1.60;;
55316;SDS011;41178;48.956;8.130;2022-09-13T14:51:32;4.22;;;1.55;;
55316;SDS011;41178;48.956;8.130;2022-09-13T14:53:26;4.05;;;1.30;;
55316;SDS011;41178;48.956;8.130;2022-09-13T14:56:14;4.32;;;1.45;;
55316;SDS011;41178;48.956;8.130;2022-09-13T14:58:00;4.38;;;1.50;;
55316;SDS011;41178;48.956;8.130;2022-09-13T15:00:06;4.38;;;1.52;;
55316;SDS011;41178;48.956;8.130;2022-09-13T15:04:23;3.95;;;1.63;;
55316;SDS011;41178;48.956;8.130;2022-09-13T15:06:27;3.13;;;1.63;;
55316;SDS011;41178;48.956;8.130;2022-09-13T15:10:41;1.65;;;1.48;;
55316;SDS011;41178;48.956;8.130;2022-09-13T15:12:51;4.38;;;1.70;;
55316;SDS011;41178;48.956;8.130;2022-09-13T15:15:20;5.97;;;1.60;;
55316;SDS011;41178;48.956;8.130;2022-09-13T15:17:24;1.40;;;1.30;;
55316;SDS011;41178;48.956;8.130;2022-09-13T15:20:01;5.05;;;3.33;;
55316;SDS011;41178;48.956;8.130;2022-09-13T15:22:11;8.30;;;6.50;;
55316;SDS011;41178;48.956;8.130;2022-09-13T15:24:28;11.27;;;8.93;;
55316;SDS011;41178;48.956;8.130;2022-09-13T15:26:32;7.57;;;4.80;;
55316;SDS011;41178;48.956;8.130;2022-09-13T15:28:55;5.53;;;2.90;;
55316;SDS011;41178;48.956;8.130;2022-09-13T15:31:04;5.68;;;2.50;;
55316;SDS011;41178;48.956;8.130;2022-09-13T15:37:28;3.33;;;1.70;;
55316;SDS011;41178;48.956;8.130;2022-09-13T15:39:49;4.63;;;1.90;;
55316;SDS011;41178;48.956;8.130;2022-09-13T15:42:02;4.05;;;1.65;;
55316;SDS011;41178;48.956;8.130;2022-09-13T15:44:05;7.55;;;1.73;;
55316;SDS011;41178;48.956;8.130;2022-09-13T15:46:12;2.38;;;1.38;;
55316;SDS011;41178;48.956;8.130;2022-09-13T15:48:22;1.48;;;1.38;;
55316;SDS011;41178;48.956;8.130;2022-09-13T15:50:28;1.80;;;1.40;;
55316;SDS011;41178;48.956;8.130;2022-09-13T15:52:34;2.65;;;1.48;;
55316;SDS011;41178;48.956;8.130;2022-09-13T15:54:39;2.65;;;1.60;;
55316;SDS011;41178;48.956;8.130;2022-09-13T15:56:43;3.05;;;1.80;;
55316;SDS011;41178;48.956;8.130;2022-09-13T15:58:48;2.38;;;1.90;;
55316;SDS011;41178;48.956;8.130;2022-09-13T16:00:49;2.55;;;1.50;;
55316;SDS011;41178;48.956;8.130;2022-09-13T16:02:51;2.17;;;1.50;;
55316;SDS011;41178;48.956;8.130;2022-09-13T16:04:54;2.83;;;1.88;;
55316;SDS011;41178;48.956;8.130;2022-09-13T16:06:56;3.25;;;1.73;;
55316;SDS011;41178;48.956;8.130;2022-09-13T16:08:57;2.97;;;1.80;;
55316;SDS011;41178;48.956;8.130;2022-09-13T16:11:00;2.13;;;1.80;;